createdAt,value
2019-04-10T00:00:56.252Z,96530.06
2019-04-10T00:03:31.762Z,96526.37
2019-04-10T00:05:52.131Z,96527.70
2019-04-10T00:08:19.660Z,96523.13
2019-04-10T00:10:46.569Z,96524.02
2019-04-10T00:13:14.207Z,96514.70
2019-04-10T00:15:41.034Z,96507.91
2019-04-10T00:18:07.974Z,96504.36
2019-04-10T00:20:34.601Z,96504.73
2019-04-10T00:23:02.431Z,96509.36
2019-04-10T00:25:29.717Z,96509.95
2019-04-10T00:27:56.362Z,96505.79
2019-04-10T00:30:23.281Z,96505.98
2019-04-10T00:32:50.210Z,96509.55
2019-04-10T00:35:16.825Z,96502.39
2019-04-10T00:37:44.913Z,96505.83
2019-04-10T00:40:11.811Z,96506.21
2019-04-10T00:42:38.671Z,96510.76
2019-04-10T00:45:05.256Z,96512.23
2019-04-10T00:47:31.973Z,96514.22
2019-04-10T00:49:59.005Z,96512.16
2019-04-10T00:52:25.606Z,96507.72
2019-04-10T00:54:52.812Z,96511.70
2019-04-10T00:57:19.447Z,96513.48
2019-04-10T00:59:47.109Z,96511.17
2019-04-10T01:02:14.113Z,96510.27
2019-04-10T01:04:40.773Z,96504.73
2019-04-10T01:07:08.391Z,96499.51
2019-04-10T01:09:35.178Z,96505.00
2019-04-10T01:12:01.789Z,96502.16
2019-04-10T01:14:29.715Z,96502.69
2019-04-10T01:16:56.299Z,96503.14
2019-04-10T01:19:23.873Z,96500.64
2019-04-10T01:21:50.814Z,96505.23
2019-04-10T01:24:17.587Z,96501.44
2019-04-10T01:29:29.905Z,96502.64
2019-04-10T01:31:56.818Z,96500.86
2019-04-10T01:34:23.996Z,96499.62
2019-04-10T01:36:50.882Z,96508.86
2019-04-10T01:39:17.962Z,96505.20
2019-04-10T01:41:44.920Z,96520.83
2019-04-10T01:44:13.168Z,96517.02
2019-04-10T01:46:40.270Z,96511.25
2019-04-10T01:49:07.182Z,96516.79
2019-04-10T01:51:33.829Z,96511.97
2019-04-10T01:54:00.611Z,96512.72
2019-04-10T01:56:31.473Z,96507.23
2019-04-10T01:58:55.735Z,96505.67
2019-04-10T02:01:22.624Z,96508.05
2019-04-10T02:03:49.943Z,96509.18
2019-04-10T02:06:16.819Z,96507.43
2019-04-10T02:08:43.474Z,96504.94
2019-04-10T02:11:10.075Z,96498.00
2019-04-10T02:13:36.760Z,96496.59
2019-04-10T02:16:03.497Z,96499.23
2019-04-10T02:18:30.371Z,96499.39
2019-04-10T02:21:09.600Z,96491.92
2019-04-10T02:23:36.634Z,96493.03
2019-04-10T02:26:03.517Z,96495.52
2019-04-10T02:28:31.191Z,96488.90
2019-04-10T02:30:58.811Z,96493.34
2019-04-10T02:33:27.453Z,96492.39
2019-04-10T02:35:54.845Z,96490.80
2019-04-10T02:38:39.053Z,96488.98
2019-04-10T02:40:50.271Z,96493.61
2019-04-10T02:43:17.017Z,96496.19
2019-04-10T02:45:44.462Z,96496.59
2019-04-10T02:48:12.131Z,96497.83
2019-04-10T02:50:38.880Z,96498.58
2019-04-10T02:53:07.561Z,96493.23
2019-04-10T02:55:35.601Z,96487.24
2019-04-10T02:58:02.698Z,96488.91
2019-04-10T03:00:30.355Z,96495.08
2019-04-10T03:02:59.195Z,96488.66
2019-04-10T03:05:27.361Z,96483.45
2019-04-10T03:07:55.730Z,96482.46
2019-04-10T03:10:31.622Z,96486.95
2019-04-10T03:12:52.586Z,96480.34
2019-04-10T03:15:20.071Z,96480.73
2019-04-10T03:17:46.806Z,96481.17
2019-04-10T03:20:14.161Z,96480.06
2019-04-10T03:22:41.087Z,96484.28
2019-04-10T03:27:54.464Z,96486.38
2019-04-10T03:30:23.469Z,96484.77
2019-04-10T03:32:57.335Z,96486.66
2019-04-10T03:35:18.713Z,96487.01
2019-04-10T03:37:45.303Z,96492.22
2019-04-10T03:40:11.981Z,96487.26
2019-04-10T03:42:39.201Z,96488.74
2019-04-10T03:45:06.131Z,96492.52
2019-04-10T03:47:33.458Z,96484.58
2019-04-10T03:50:00.817Z,96490.20
2019-04-10T03:52:27.502Z,96489.98
2019-04-10T03:54:54.597Z,96493.86
2019-04-10T03:57:21.316Z,96493.06
2019-04-10T03:59:47.909Z,96497.52
2019-04-10T04:02:15.719Z,96500.15
2019-04-10T04:04:42.442Z,96500.31
2019-04-10T04:07:09.175Z,96498.05
2019-04-10T04:09:36.034Z,96497.89
2019-04-10T04:12:02.809Z,96502.08
2019-04-10T04:14:30.587Z,96499.69
2019-04-10T04:16:57.797Z,96502.33
2019-04-10T04:19:24.463Z,96503.02
2019-04-10T04:21:52.210Z,96503.73
2019-04-10T04:24:21.269Z,96502.98
2019-04-10T04:26:48.577Z,96509.02
2019-04-10T04:29:16.222Z,96511.08
2019-04-10T04:31:43.860Z,96522.22
2019-04-10T04:34:12.050Z,96515.34
2019-04-10T04:36:39.010Z,96522.25
2019-04-10T04:39:18.058Z,96519.66
2019-04-10T04:41:34.332Z,96523.11
2019-04-10T04:44:01.781Z,96526.84
2019-04-10T04:46:28.444Z,96531.73
2019-04-10T04:48:55.069Z,96530.11
2019-04-10T04:51:22.023Z,96533.91
2019-04-10T04:53:48.562Z,96529.83
2019-04-10T04:56:15.726Z,96543.80
2019-04-10T04:58:43.432Z,96536.17
2019-04-10T05:01:10.546Z,96535.55
2019-04-10T05:03:37.642Z,96541.22
2019-04-10T05:06:04.220Z,96546.56
2019-04-10T05:08:30.820Z,96537.33
2019-04-10T05:10:57.952Z,96542.09
2019-04-10T05:13:24.571Z,96537.95
2019-04-10T05:15:51.393Z,96536.00
2019-04-10T05:18:19.053Z,96535.95
2019-04-10T05:20:49.713Z,96541.08
2019-04-10T05:23:14.245Z,96542.56
2019-04-10T05:25:43.441Z,96538.02
2019-04-10T05:28:11.256Z,96541.84
2019-04-10T05:30:37.901Z,96545.34
2019-04-10T05:33:04.773Z,96555.40
2019-04-10T05:35:32.007Z,96553.85
2019-04-10T05:37:58.599Z,96559.16
2019-04-10T05:40:25.967Z,96557.84
2019-04-10T05:42:53.311Z,96552.44
2019-04-10T05:45:21.217Z,96557.84
2019-04-10T05:47:48.046Z,96560.39
2019-04-10T05:50:15.071Z,96565.53
2019-04-10T05:52:43.039Z,96567.16
2019-04-10T05:55:09.949Z,96574.83
2019-04-10T05:57:37.030Z,96576.25
2019-04-10T06:00:04.734Z,96582.66
2019-04-10T06:02:32.135Z,96581.48
2019-04-10T06:04:59.980Z,96581.84
2019-04-10T06:07:32.924Z,96585.75
2019-04-10T06:10:04.822Z,96579.03
2019-04-10T06:12:28.574Z,96584.97
2019-04-10T06:14:56.681Z,96585.58
2019-04-10T06:17:24.552Z,96586.59
2019-04-10T06:19:52.999Z,96593.84
2019-04-10T06:22:20.780Z,96596.14
2019-04-10T06:24:48.775Z,96600.46
2019-04-10T06:27:16.403Z,96599.36
2019-04-10T06:29:43.431Z,96599.81
2019-04-10T06:32:11.988Z,96597.78
2019-04-10T06:34:40.871Z,96603.44
2019-04-10T06:37:08.727Z,96606.75
2019-04-10T06:39:35.420Z,96597.91
2019-04-10T06:42:02.544Z,96598.31
2019-04-10T06:44:30.096Z,96592.89
2019-04-10T06:46:58.177Z,96602.95
2019-04-10T06:49:25.318Z,96607.91
2019-04-10T06:51:51.969Z,96600.90
2019-04-10T06:54:19.180Z,96597.51
2019-04-10T06:56:48.372Z,96595.26
2019-04-10T06:59:14.473Z,96602.51
2019-04-10T07:01:49.549Z,96603.84
2019-04-10T07:04:11.404Z,96604.31
2019-04-10T07:06:50.322Z,96614.71
2019-04-10T07:09:07.569Z,96612.35
2019-04-10T07:11:34.491Z,96608.94
2019-04-10T07:14:01.630Z,96612.52
2019-04-10T07:16:32.260Z,96603.55
2019-04-10T07:18:58.465Z,96609.83
2019-04-10T07:21:25.415Z,96609.20
2019-04-10T07:23:52.451Z,96618.36
2019-04-10T07:29:04.707Z,96612.57
2019-04-10T07:31:34.947Z,96617.68
2019-04-10T07:34:00.030Z,96618.20
2019-04-10T07:36:28.704Z,96618.61
2019-04-10T07:38:56.222Z,96620.81
2019-04-10T07:41:25.991Z,96624.31
2019-04-10T07:43:55.341Z,96629.38
2019-04-10T07:46:21.849Z,96631.59
2019-04-10T07:48:48.599Z,96624.91
2019-04-10T07:51:15.219Z,96627.30
2019-04-10T07:53:42.260Z,96631.84
2019-04-10T07:56:14.389Z,96634.11
2019-04-10T07:58:37.827Z,96637.83
2019-04-10T08:01:05.183Z,96633.63
2019-04-10T08:03:31.831Z,96634.59
2019-04-10T08:05:58.552Z,96630.66
2019-04-10T08:08:25.665Z,96629.53
2019-04-10T08:10:53.020Z,96637.34
2019-04-10T08:13:20.415Z,96630.44
2019-04-10T08:15:47.291Z,96634.48
2019-04-10T08:18:14.698Z,96632.23
2019-04-10T08:20:42.432Z,96635.80
2019-04-10T08:23:10.136Z,96635.31
2019-04-10T08:25:38.783Z,96635.92
2019-04-10T08:28:05.523Z,96641.33
2019-04-10T08:30:32.225Z,96637.08
2019-04-10T08:33:01.169Z,96639.10
2019-04-10T08:35:27.845Z,96636.80
2019-04-10T08:37:54.479Z,96640.71
2019-04-10T08:40:21.175Z,96640.75
2019-04-10T08:42:47.927Z,96643.30
2019-04-10T08:45:16.719Z,96641.62
2019-04-10T08:47:44.224Z,96647.00
2019-04-10T08:50:11.842Z,96648.75
2019-04-10T08:52:39.166Z,96646.28
2019-04-10T08:55:06.034Z,96649.66
2019-04-10T08:57:32.734Z,96651.94
2019-04-10T09:00:02.691Z,96652.66
2019-04-10T09:02:30.341Z,96646.47
2019-04-10T09:04:57.361Z,96652.19
2019-04-10T09:07:24.277Z,96655.98
2019-04-10T09:09:51.909Z,96654.35
2019-04-10T09:12:19.820Z,96653.86
2019-04-10T09:14:47.493Z,96658.09
2019-04-10T09:17:15.360Z,96660.59
2019-04-10T09:19:42.327Z,96664.59
2019-04-10T09:22:10.035Z,96668.38
2019-04-10T09:24:36.662Z,96667.05
2019-04-10T09:27:04.700Z,96665.44
2019-04-10T09:29:32.022Z,96668.83
2019-04-10T09:31:58.644Z,96675.55
2019-04-10T09:34:25.714Z,96673.23
2019-04-10T09:36:53.400Z,96670.34
2019-04-10T09:39:20.227Z,96668.22
2019-04-10T09:41:46.978Z,96667.00
2019-04-10T09:44:14.451Z,96668.67
2019-04-10T09:46:41.078Z,96657.08
2019-04-10T09:49:08.781Z,96656.64
2019-04-10T09:51:36.183Z,96654.33
2019-04-10T09:54:03.620Z,96657.97
2019-04-10T09:56:30.323Z,96665.11
2019-04-10T09:58:56.906Z,96669.36
2019-04-10T10:01:24.037Z,96669.31
2019-04-10T10:03:50.909Z,96678.53
2019-04-10T10:06:27.368Z,96676.98
2019-04-10T10:08:46.092Z,96672.61
2019-04-10T10:11:13.770Z,96670.75
2019-04-10T10:13:41.486Z,96663.58
2019-04-10T10:16:08.505Z,96660.50
2019-04-10T10:18:35.335Z,96660.13
2019-04-10T10:21:01.992Z,96665.59
2019-04-10T10:23:29.685Z,96665.41
2019-04-10T10:25:57.041Z,96660.82
2019-04-10T10:28:23.857Z,96663.92
2019-04-10T10:30:51.517Z,96666.25
2019-04-10T10:33:18.754Z,96666.66
2019-04-10T10:35:45.608Z,96667.16
2019-04-10T10:38:12.739Z,96667.49
2019-04-10T10:40:39.481Z,96662.56
2019-04-10T10:43:06.409Z,96662.25
2019-04-10T10:45:33.232Z,96661.16
2019-04-10T10:48:01.342Z,96665.94
2019-04-10T10:50:28.926Z,96662.75
2019-04-10T10:52:57.587Z,96661.92
2019-04-10T10:55:27.560Z,96658.90
2019-04-10T10:57:54.122Z,96654.85
2019-04-10T11:00:21.012Z,96664.34
2019-04-10T11:02:47.691Z,96663.32
2019-04-10T11:05:14.558Z,96665.74
2019-04-10T11:07:42.787Z,96663.28
2019-04-10T11:10:09.839Z,96661.72
2019-04-10T11:12:36.430Z,96661.89
2019-04-10T11:15:03.807Z,96669.17
2019-04-10T11:17:30.855Z,96666.34
2019-04-10T11:19:57.420Z,96667.17
2019-04-10T11:22:25.728Z,96670.70
2019-04-10T11:24:55.624Z,96672.86
2019-04-10T11:27:22.989Z,96662.88
2019-04-10T11:29:51.062Z,96662.11
2019-04-10T11:32:17.736Z,96663.59
2019-04-10T11:34:44.358Z,96661.47
2019-04-10T11:37:23.394Z,96669.89
2019-04-10T11:39:43.289Z,96663.44
2019-04-10T11:42:09.997Z,96670.77
2019-04-10T11:44:36.768Z,96661.27
2019-04-10T11:47:06.338Z,96668.18
2019-04-10T11:49:35.643Z,96668.71
2019-04-10T11:52:03.982Z,96673.30
2019-04-10T11:54:32.775Z,96671.52
2019-04-10T11:59:28.967Z,96673.41
2019-04-10T12:02:00.735Z,96670.96
2019-04-10T12:04:25.654Z,96670.47
2019-04-10T12:06:55.430Z,96670.16
2019-04-10T12:10:16.903Z,96667.77
2019-04-10T12:11:49.615Z,96667.50
2019-04-10T12:14:16.597Z,96667.73
2019-04-10T12:16:43.501Z,96671.19
2019-04-10T12:19:11.073Z,96670.63
2019-04-10T12:21:38.213Z,96670.86
2019-04-10T12:24:05.389Z,96668.53
2019-04-10T12:26:32.068Z,96661.61
2019-04-10T12:28:58.804Z,96664.09
2019-04-10T12:31:26.018Z,96658.45
2019-04-10T12:33:54.885Z,96658.77
2019-04-10T12:36:22.465Z,96660.77
2019-04-10T12:38:49.830Z,96660.16
2019-04-10T12:41:17.271Z,96655.80
2019-04-10T12:43:45.183Z,96657.28
2019-04-10T12:46:12.866Z,96656.63
2019-04-10T12:48:41.077Z,96653.52
2019-04-10T12:51:07.881Z,96657.19
2019-04-10T12:53:35.838Z,96657.70
2019-04-10T12:56:02.654Z,96658.38
2019-04-10T12:58:29.358Z,96649.77
2019-04-10T13:00:56.335Z,96652.27
2019-04-10T13:03:23.111Z,96646.65
2019-04-10T13:05:51.493Z,96647.94
2019-04-10T13:08:23.682Z,96639.52
2019-04-10T13:10:47.627Z,96645.66
2019-04-10T13:13:14.607Z,96646.24
2019-04-10T13:15:43.531Z,96644.26
2019-04-10T13:18:10.181Z,96642.16
2019-04-10T13:20:37.911Z,96643.10
2019-04-10T13:23:04.844Z,96640.83
2019-04-10T13:25:32.434Z,96639.75
2019-04-10T13:27:59.102Z,96639.73
2019-04-10T13:30:25.712Z,96643.51
2019-04-10T13:32:52.308Z,96641.91
2019-04-10T13:35:19.176Z,96640.39
2019-04-10T13:37:52.849Z,96639.34
2019-04-10T13:40:19.759Z,96639.92
2019-04-10T13:42:47.491Z,96634.59
2019-04-10T13:45:15.140Z,96643.31
2019-04-10T13:47:43.013Z,96635.09
2019-04-10T13:50:10.792Z,96636.27
2019-04-10T13:52:38.585Z,96639.17
2019-04-10T13:55:07.410Z,96632.77
2019-04-10T13:57:34.841Z,96630.17
2019-04-10T14:00:02.673Z,96631.77
2019-04-10T14:02:32.241Z,96627.81
2019-04-10T14:05:03.285Z,96635.38
2019-04-10T14:07:29.940Z,96633.14
2019-04-10T14:09:58.590Z,96628.73
2019-04-10T14:12:27.046Z,96625.89
2019-04-10T14:14:55.195Z,96624.35
2019-04-10T14:17:23.753Z,96627.75
2019-04-10T14:19:51.973Z,96627.49
2019-04-10T14:22:21.840Z,96623.83
2019-04-10T14:24:49.790Z,96620.63
2019-04-10T14:27:18.301Z,96618.34
2019-04-10T14:29:45.397Z,96620.55
2019-04-10T14:32:13.410Z,96619.73
2019-04-10T14:34:41.057Z,96615.72
2019-04-10T14:37:07.959Z,96623.37
2019-04-10T14:39:35.897Z,96628.92
2019-04-10T14:42:04.409Z,96631.33
2019-04-10T14:44:32.613Z,96630.05
2019-04-10T14:47:00.455Z,96627.76
2019-04-10T14:49:29.316Z,96624.41
2019-04-10T14:51:56.828Z,96621.69
2019-04-10T14:54:25.928Z,96619.28
2019-04-10T14:56:52.679Z,96618.99
2019-04-10T14:59:19.832Z,96617.72
2019-04-10T15:01:48.368Z,96620.59
2019-04-10T15:04:15.114Z,96622.02
2019-04-10T15:06:41.852Z,96618.72
2019-04-10T15:09:19.926Z,96617.02
2019-04-10T15:11:38.498Z,96619.53
2019-04-10T15:14:07.724Z,96611.60
2019-04-10T15:16:35.362Z,96610.83
2019-04-10T15:19:02.964Z,96611.75
2019-04-10T15:21:31.227Z,96606.53
2019-04-10T15:23:59.439Z,96611.58
2019-04-10T15:26:26.177Z,96609.28
2019-04-10T15:28:53.914Z,96615.22
2019-04-10T15:31:21.552Z,96604.40
2019-04-10T15:33:49.663Z,96600.72
2019-04-10T15:36:20.572Z,96602.04
2019-04-10T15:38:48.548Z,96599.90
2019-04-10T15:41:16.927Z,96603.39
2019-04-10T15:43:45.541Z,96602.30
2019-04-10T15:46:13.181Z,96601.16
2019-04-10T15:48:39.846Z,96603.63
2019-04-10T15:51:07.765Z,96597.74
2019-04-10T15:53:36.491Z,96596.00
2019-04-10T15:56:05.573Z,96602.73
2019-04-10T15:58:33.349Z,96594.92
2019-04-10T16:01:01.400Z,96595.22
2019-04-10T16:03:28.190Z,96598.06
2019-04-10T16:05:55.879Z,96602.23
2019-04-10T16:08:23.824Z,96600.94
2019-04-10T16:10:51.419Z,96604.13
2019-04-10T16:13:19.832Z,96610.22
2019-04-10T16:15:47.501Z,96605.72
2019-04-10T16:18:15.525Z,96610.16
2019-04-10T16:20:43.715Z,96612.44
2019-04-10T16:23:12.258Z,96611.70
2019-04-10T16:25:40.398Z,96606.97
2019-04-10T16:28:08.275Z,96606.56
2019-04-10T16:30:35.255Z,96607.89
2019-04-10T16:33:03.026Z,96601.92
2019-04-10T16:35:32.813Z,96600.80
2019-04-10T16:38:00.217Z,96599.28
2019-04-10T16:40:27.926Z,96600.52
2019-04-10T16:42:55.494Z,96606.09
2019-04-10T16:45:23.113Z,96604.53
2019-04-10T16:47:50.359Z,96606.09
2019-04-10T16:50:17.646Z,96601.74
2019-04-10T16:52:45.422Z,96608.16
2019-04-10T16:55:12.197Z,96600.81
2019-04-10T16:57:43.108Z,96604.27
2019-04-10T17:00:13.573Z,96602.88
2019-04-10T17:02:40.489Z,96602.14
2019-04-10T17:05:08.228Z,96598.95
2019-04-10T17:07:36.004Z,96605.27
2019-04-10T17:10:12.822Z,96608.80
2019-04-10T17:12:32.308Z,96608.69
2019-04-10T17:14:59.902Z,96604.53
2019-04-10T17:17:26.949Z,96603.45
2019-04-10T17:19:57.271Z,96606.69
2019-04-10T17:22:32.333Z,96605.00
2019-04-10T17:24:53.705Z,96606.41
2019-04-10T17:27:21.607Z,96614.00
2019-04-10T17:35:29.672Z,96610.86
2019-04-10T17:45:56.749Z,96621.02
2019-04-10T17:48:28.066Z,96615.66
2019-04-10T17:51:01.648Z,96618.32
2019-04-10T17:53:35.946Z,96622.09
2019-04-10T17:56:02.150Z,96615.28
2019-04-10T17:58:37.908Z,96625.18
2019-04-10T18:01:05.403Z,96623.28
2019-04-10T18:08:28.441Z,96634.00
2019-04-10T18:27:49.031Z,96658.16
2019-04-10T18:30:23.750Z,96656.80
2019-04-10T18:32:50.808Z,96669.36
2019-04-10T18:35:22.888Z,96665.64
2019-04-10T18:40:39.248Z,96663.73
2019-04-10T18:43:08.420Z,96664.70
2019-04-10T18:45:54.048Z,96666.67
2019-04-10T18:48:03.573Z,96660.32
2019-04-10T18:50:30.623Z,96661.98
2019-04-10T18:52:57.659Z,96669.78
2019-04-10T18:55:24.809Z,96667.78
2019-04-10T18:58:07.547Z,96667.29
2019-04-10T19:16:39.978Z,96676.52
2019-04-10T19:19:08.011Z,96671.54
2019-04-10T19:21:35.715Z,96669.31
2019-04-10T19:24:03.626Z,96666.83
2019-04-10T19:29:17.437Z,96666.28
2019-04-10T19:31:45.484Z,96663.28
2019-04-10T19:34:14.973Z,96667.35
2019-04-10T19:36:45.189Z,96669.89
2019-04-10T19:39:16.377Z,96668.26
2019-04-10T19:41:46.944Z,96670.53
2019-04-10T19:44:12.853Z,96666.45
2019-04-10T19:46:43.941Z,96662.11
2019-04-10T19:50:55.076Z,96665.02
2019-04-10T19:51:43.798Z,96661.84
2019-04-10T20:05:23.423Z,96666.03
2019-04-10T20:10:37.358Z,96668.16
2019-04-10T20:13:56.759Z,96667.69
2019-04-10T20:16:51.648Z,96666.50
2019-04-10T20:18:18.838Z,96669.13
2019-04-10T20:20:45.739Z,96667.08
2019-04-10T20:23:12.702Z,96664.16
2019-04-10T20:25:43.487Z,96664.27
2019-04-10T20:28:10.119Z,96667.82
2019-04-10T20:30:37.478Z,96672.75
2019-04-10T20:33:04.187Z,96671.71
2019-04-10T20:38:32.032Z,96680.13
2019-04-10T20:40:58.313Z,96677.79
2019-04-10T20:43:25.173Z,96683.47
2019-04-10T20:45:52.158Z,96677.59
2019-04-10T20:48:18.934Z,96667.03
2019-04-10T20:50:46.005Z,96669.79
2019-04-10T20:53:12.648Z,96669.69
2019-04-10T20:55:39.500Z,96666.64
2019-04-10T20:58:06.652Z,96666.39
2019-04-10T21:00:34.303Z,96674.73
2019-04-10T21:03:00.948Z,96665.79
2019-04-10T21:05:28.263Z,96666.01
2019-04-10T21:07:56.275Z,96670.17
2019-04-10T21:10:23.486Z,96663.25
2019-04-10T21:12:50.472Z,96666.84
2019-04-10T21:15:17.499Z,96667.64
2019-04-10T21:17:44.185Z,96664.84
2019-04-10T21:20:13.121Z,96667.91
2019-04-10T21:22:40.404Z,96665.95
2019-04-10T21:27:56.688Z,96661.25
2019-04-10T21:30:26.312Z,96665.13
2019-04-10T21:32:55.306Z,96657.00
2019-04-10T21:35:22.811Z,96659.33
2019-04-10T21:37:52.856Z,96656.26
2019-04-10T21:40:20.724Z,96658.60
2019-04-10T21:42:47.878Z,96661.72
2019-04-10T21:45:15.955Z,96657.86
2019-04-10T21:47:48.162Z,96657.38
2019-04-10T21:50:18.576Z,96657.39
2019-04-10T21:52:51.840Z,96654.73
2019-04-10T21:55:19.155Z,96656.19
2019-04-10T21:57:49.483Z,96657.50
2019-04-10T22:00:21.030Z,96654.56
2019-04-10T22:02:48.555Z,96660.38
2019-04-10T22:05:16.447Z,96655.02
2019-04-10T22:07:43.318Z,96657.29
2019-04-10T22:10:10.175Z,96652.35
2019-04-10T22:12:43.762Z,96659.55
2019-04-10T22:15:06.481Z,96656.73
2019-04-10T22:17:34.166Z,96664.88
2019-04-10T22:20:01.288Z,96665.41
2019-04-10T22:22:28.892Z,96663.91
2019-04-10T22:24:59.503Z,96656.80
2019-04-10T22:27:27.338Z,96657.76
2019-04-10T22:29:56.339Z,96654.30
2019-04-10T22:32:27.348Z,96657.89
2019-04-10T22:34:54.938Z,96661.92
2019-04-10T22:37:23.577Z,96669.20
2019-04-10T22:39:52.640Z,96659.45
2019-04-10T22:42:21.367Z,96663.16
2019-04-10T22:44:56.100Z,96659.88
2019-04-10T22:47:25.328Z,96655.52
2019-04-10T22:49:53.988Z,96656.63
2019-04-10T22:52:26.182Z,96653.54
2019-04-10T22:54:57.254Z,96650.59
2019-04-10T22:57:27.284Z,96654.92
2019-04-10T22:59:55.323Z,96657.56
2019-04-10T23:02:23.422Z,96654.06
2019-04-10T23:04:51.300Z,96650.31
2019-04-10T23:07:18.261Z,96657.63
2019-04-10T23:09:44.919Z,96657.05
2019-04-10T23:12:11.519Z,96659.69
2019-04-10T23:14:38.647Z,96660.93
2019-04-10T23:17:05.320Z,96665.52
2019-04-10T23:19:32.214Z,96663.83
2019-04-10T23:21:59.271Z,96661.45
2019-04-10T23:24:25.927Z,96664.77
2019-04-10T23:26:55.421Z,96666.12
2019-04-10T23:29:22.335Z,96669.48
2019-04-10T23:31:49.990Z,96676.71
2019-04-10T23:34:16.826Z,96675.86
2019-04-10T23:36:46.479Z,96674.42
2019-04-10T23:39:14.221Z,96685.02
2019-04-10T23:41:42.006Z,96685.45
2019-04-10T23:44:08.982Z,96689.27
2019-04-10T23:46:36.768Z,96693.45
2019-04-10T23:49:05.615Z,96695.87
2019-04-10T23:51:32.244Z,96701.52
2019-04-10T23:53:58.967Z,96702.47
2019-04-10T23:56:27.136Z,96705.84
2019-04-10T23:58:54.204Z,96705.16
